createdAt,value
2018-07-06T00:00:57.389Z,72.16
2018-07-06T00:01:57.392Z,71.67
2018-07-06T00:03:50.312Z,71.77
2018-07-06T00:04:50.333Z,71.96
2018-07-06T00:06:43.265Z,72.06
2018-07-06T00:07:43.269Z,71.67
2018-07-06T00:09:36.200Z,72.25
2018-07-06T00:10:36.210Z,71.58
2018-07-06T00:12:29.180Z,71.58
2018-07-06T00:13:29.137Z,72.06
2018-07-06T00:15:22.069Z,71.58
2018-07-06T00:16:22.080Z,72.34
2018-07-06T00:18:15.009Z,72.44
2018-07-06T00:19:15.015Z,72.34
2018-07-06T00:21:08.086Z,72.25
2018-07-06T00:22:08.089Z,72.22
2018-07-06T00:24:01.000Z,72.25
2018-07-06T00:25:01.022Z,72.64
2018-07-06T00:26:53.988Z,72.06
2018-07-06T00:27:53.965Z,72.54
2018-07-06T00:29:46.874Z,72.64
2018-07-06T00:30:46.895Z,72.34
2018-07-06T00:32:39.825Z,72.44
2018-07-06T00:33:39.828Z,72.44
2018-07-06T00:35:32.761Z,72.89
2018-07-06T00:36:32.765Z,73.08
2018-07-06T00:38:25.677Z,73.27
2018-07-06T00:39:25.699Z,72.69
2018-07-06T00:41:18.628Z,73.31
2018-07-06T00:42:18.631Z,72.89
2018-07-06T00:44:11.542Z,73.18
2018-07-06T00:45:11.565Z,73.02
2018-07-06T00:47:05.491Z,72.64
2018-07-06T00:48:05.509Z,72.73
2018-07-06T00:49:58.405Z,72.83
2018-07-06T00:50:58.428Z,72.92
2018-07-06T00:52:51.363Z,72.34
2018-07-06T00:53:51.365Z,72.34
2018-07-06T00:55:44.297Z,72.34
2018-07-06T00:56:44.297Z,72.34
2018-07-06T00:58:37.209Z,72.25
2018-07-06T00:59:37.232Z,72.83
2018-07-06T01:01:30.179Z,73.21
2018-07-06T01:02:30.166Z,73.21
2018-07-06T01:04:23.078Z,73.66
2018-07-06T01:05:23.100Z,73.79
2018-07-06T01:07:16.031Z,73.27
2018-07-06T01:08:16.039Z,73.21
2018-07-06T01:10:08.962Z,73.11
2018-07-06T01:11:08.968Z,73.18
2018-07-06T01:13:01.900Z,73.94
2018-07-06T01:14:01.902Z,73.75
2018-07-06T01:15:54.834Z,74.33
2018-07-06T01:16:54.839Z,74.43
2018-07-06T01:18:47.753Z,74.33
2018-07-06T01:19:47.773Z,74.62
2018-07-06T01:21:40.718Z,73.94
2018-07-06T01:22:40.719Z,74.33
2018-07-06T01:24:33.633Z,74.33
2018-07-06T01:25:33.660Z,74.33
2018-07-06T01:27:26.585Z,74.62
2018-07-06T01:28:26.590Z,74.43
2018-07-06T01:30:19.502Z,74.81
2018-07-06T01:31:19.525Z,75.20
2018-07-06T01:33:12.467Z,75.73
2018-07-06T01:34:12.460Z,75.54
2018-07-06T01:36:05.374Z,76.59
2018-07-06T01:37:05.394Z,76.69
2018-07-06T01:38:58.332Z,77.56
2018-07-06T01:39:58.333Z,77.08
2018-07-06T01:41:51.264Z,77.33
2018-07-06T01:42:51.267Z,77.61
2018-07-06T01:44:44.177Z,77.13
2018-07-06T01:45:44.197Z,77.80
2018-07-06T01:47:37.129Z,77.13
2018-07-06T01:48:37.133Z,77.13
2018-07-06T01:50:30.047Z,77.23
2018-07-06T01:51:30.068Z,77.08
2018-07-06T01:53:23.017Z,77.56
2018-07-06T01:54:23.001Z,77.46
2018-07-06T01:56:15.908Z,77.65
2018-07-06T01:57:15.934Z,77.46
2018-07-06T01:59:08.866Z,77.46
2018-07-06T02:00:08.868Z,76.79
2018-07-06T02:02:01.798Z,77.46
2018-07-06T02:03:01.804Z,77.46
2018-07-06T02:04:54.725Z,77.26
2018-07-06T02:05:54.753Z,77.36
2018-07-06T02:07:47.685Z,77.08
2018-07-06T02:08:47.685Z,77.65
2018-07-06T02:10:40.602Z,77.17
2018-07-06T02:11:40.621Z,77.46
2018-07-06T02:13:33.555Z,76.98
2018-07-06T02:14:33.557Z,77.08
2018-07-06T02:16:26.473Z,76.98
2018-07-06T02:17:26.494Z,76.92
2018-07-06T02:19:19.426Z,76.44
2018-07-06T02:20:19.428Z,76.88
2018-07-06T02:22:12.338Z,76.82
2018-07-06T02:23:12.363Z,77.17
2018-07-06T02:25:05.428Z,77.26
2018-07-06T02:26:05.427Z,76.98
2018-07-06T02:27:58.363Z,77.46
2018-07-06T02:28:58.365Z,76.98
2018-07-06T02:30:51.405Z,77.46
2018-07-06T02:31:51.428Z,77.65
2018-07-06T02:33:44.358Z,76.92
2018-07-06T02:34:44.361Z,77.01
2018-07-06T02:36:37.276Z,77.46
2018-07-06T02:37:37.299Z,76.98
2018-07-06T02:39:30.233Z,76.98
2018-07-06T02:40:30.233Z,77.65
2018-07-06T02:42:23.146Z,78.03
2018-07-06T02:43:23.169Z,78.13
2018-07-06T02:45:16.168Z,78.42
2018-07-06T02:46:16.104Z,78.23
2018-07-06T02:48:09.012Z,78.13
2018-07-06T02:49:09.033Z,78.13
2018-07-06T02:51:01.996Z,77.94
2018-07-06T02:52:01.971Z,78.42
2018-07-06T02:53:54.901Z,78.23
2018-07-06T02:54:54.904Z,78.03
2018-07-06T02:56:47.817Z,77.75
2018-07-06T02:57:47.837Z,77.75
2018-07-06T02:59:40.781Z,77.94
2018-07-06T03:00:40.775Z,78.03
2018-07-06T03:02:33.689Z,78.13
2018-07-06T03:03:33.712Z,77.94
2018-07-06T03:05:26.645Z,78.23
2018-07-06T03:06:26.648Z,77.75
2018-07-06T03:08:19.561Z,77.26
2018-07-06T03:09:19.581Z,77.69
2018-07-06T03:11:12.516Z,77.40
2018-07-06T03:12:12.516Z,77.69
2018-07-06T03:14:05.452Z,77.78
2018-07-06T03:15:05.461Z,77.40
2018-07-06T03:16:58.363Z,77.01
2018-07-06T03:17:58.387Z,76.82
2018-07-06T03:19:51.321Z,77.31
2018-07-06T03:20:51.323Z,76.92
2018-07-06T03:22:44.239Z,77.50
2018-07-06T03:23:44.266Z,77.40
2018-07-06T03:25:37.194Z,77.31
2018-07-06T03:26:37.205Z,77.31
2018-07-06T03:28:30.323Z,77.31
2018-07-06T03:29:30.129Z,76.82
2018-07-06T03:31:23.062Z,76.92
2018-07-06T03:32:23.062Z,76.82
2018-07-06T03:34:15.999Z,76.96
2018-07-06T03:35:15.999Z,77.01
2018-07-06T03:37:08.911Z,76.48
2018-07-06T03:38:08.934Z,76.77
2018-07-06T03:40:01.870Z,76.77
2018-07-06T03:41:01.876Z,76.86
2018-07-06T03:42:54.788Z,76.19
2018-07-06T03:43:54.815Z,76.67
2018-07-06T03:45:47.742Z,76.77
2018-07-06T03:46:47.744Z,76.77
2018-07-06T03:48:40.657Z,76.96
2018-07-06T03:49:40.678Z,76.64
2018-07-06T03:51:33.614Z,76.77
2018-07-06T03:52:33.615Z,76.57
2018-07-06T03:54:26.553Z,76.86
2018-07-06T03:55:26.550Z,77.15
2018-07-06T03:57:19.468Z,77.15
2018-07-06T03:58:19.490Z,77.15
2018-07-06T04:00:12.423Z,76.19
2018-07-06T04:01:12.423Z,76.57
2018-07-06T04:03:05.335Z,76.39
2018-07-06T04:04:05.357Z,76.54
2018-07-06T04:05:58.300Z,76.64
2018-07-06T04:06:58.312Z,76.64
2018-07-06T04:08:51.214Z,76.82
2018-07-06T04:09:51.234Z,77.78
2018-07-06T04:11:44.174Z,77.06
2018-07-06T04:12:44.181Z,77.34
2018-07-06T04:14:37.120Z,77.25
2018-07-06T04:15:37.109Z,76.57
2018-07-06T04:17:30.021Z,76.67
2018-07-06T04:18:30.043Z,76.96
2018-07-06T04:20:23.151Z,76.67
2018-07-06T04:21:23.153Z,77.25
2018-07-06T04:23:16.071Z,76.57
2018-07-06T04:24:16.092Z,76.57
2018-07-06T04:26:09.028Z,76.67
2018-07-06T04:27:09.030Z,76.77
2018-07-06T04:29:01.947Z,76.77
2018-07-06T04:30:01.962Z,76.82
2018-07-06T04:31:54.897Z,77.69
2018-07-06T04:32:54.899Z,77.50
2018-07-06T04:34:47.812Z,77.50
2018-07-06T04:35:47.834Z,77.59
2018-07-06T04:37:40.765Z,77.31
2018-07-06T04:38:40.768Z,77.31
2018-07-06T04:40:33.703Z,77.88
2018-07-06T04:41:33.704Z,77.88
2018-07-06T04:43:26.616Z,77.83
2018-07-06T04:44:26.651Z,77.59
2018-07-06T04:46:19.570Z,77.25
2018-07-06T04:47:19.572Z,77.31
2018-07-06T04:49:12.483Z,77.69
2018-07-06T04:50:12.505Z,77.40
2018-07-06T04:52:05.440Z,77.44
2018-07-06T04:53:05.440Z,77.15
2018-07-06T04:54:58.351Z,77.34
2018-07-06T04:55:58.377Z,77.44
2018-07-06T04:57:51.309Z,77.53
2018-07-06T04:58:51.311Z,76.86
2018-07-06T05:00:44.245Z,76.96
2018-07-06T05:01:44.248Z,76.77
2018-07-06T05:03:37.168Z,76.77
2018-07-06T05:04:37.186Z,76.67
2018-07-06T05:06:30.119Z,76.77
2018-07-06T05:07:30.130Z,76.86
2018-07-06T05:09:23.034Z,76.96
2018-07-06T05:10:23.059Z,76.77
2018-07-06T05:12:16.005Z,77.15
2018-07-06T05:13:16.009Z,76.48
2018-07-06T05:15:09.066Z,76.90
2018-07-06T05:16:09.094Z,76.39
2018-07-06T05:18:02.026Z,76.77
2018-07-06T05:19:02.025Z,76.86
2018-07-06T05:20:54.959Z,76.57
2018-07-06T05:21:54.961Z,76.19
2018-07-06T05:23:47.874Z,76.14
2018-07-06T05:24:47.899Z,76.42
2018-07-06T05:26:41.324Z,76.32
2018-07-06T05:27:41.328Z,76.48
2018-07-06T05:29:34.241Z,76.57
2018-07-06T05:30:34.272Z,76.39
2018-07-06T05:32:27.196Z,76.09
2018-07-06T05:33:27.200Z,76.77
2018-07-06T05:35:20.120Z,76.77
2018-07-06T05:36:20.145Z,76.96
2018-07-06T05:38:13.070Z,76.32
2018-07-06T05:39:13.075Z,76.32
2018-07-06T05:41:06.008Z,76.52
2018-07-06T05:42:06.010Z,76.61
2018-07-06T05:43:59.131Z,76.39
2018-07-06T05:44:59.130Z,76.90
2018-07-06T05:46:52.067Z,76.29
2018-07-06T05:47:52.079Z,76.23
2018-07-06T05:49:44.981Z,76.57
2018-07-06T05:50:45.012Z,76.96
2018-07-06T05:52:37.939Z,77.78
2018-07-06T05:53:37.940Z,77.50
2018-07-06T05:55:30.853Z,77.88
2018-07-06T05:56:30.878Z,77.78
2018-07-06T05:58:23.805Z,77.88
2018-07-06T05:59:23.808Z,78.45
2018-07-06T06:01:16.724Z,77.98
2018-07-06T06:02:16.747Z,77.98
2018-07-06T06:04:09.680Z,78.08
2018-07-06T06:05:09.683Z,78.02
2018-07-06T06:07:02.611Z,78.21
2018-07-06T06:08:02.615Z,77.88
2018-07-06T06:09:55.526Z,78.27
2018-07-06T06:10:55.550Z,77.98
2018-07-06T06:12:48.481Z,77.88
2018-07-06T06:13:48.490Z,78.65
2018-07-06T06:15:41.400Z,78.55
2018-07-06T06:16:41.421Z,78.55
2018-07-06T06:18:34.451Z,78.78
2018-07-06T06:19:34.359Z,78.11
2018-07-06T06:21:27.268Z,78.02
2018-07-06T06:22:27.294Z,77.83
2018-07-06T06:24:20.223Z,77.44
2018-07-06T06:25:20.230Z,77.48
2018-07-06T06:27:13.157Z,77.29
2018-07-06T06:28:13.163Z,76.71
2018-07-06T06:30:06.076Z,76.42
2018-07-06T06:31:06.099Z,76.61
2018-07-06T06:32:59.098Z,77.15
2018-07-06T06:33:59.073Z,77.29
2018-07-06T06:35:51.952Z,77.15
2018-07-06T06:36:51.973Z,77.44
2018-07-06T06:38:44.906Z,77.25
2018-07-06T06:39:44.908Z,77.73
2018-07-06T06:41:37.823Z,77.92
2018-07-06T06:42:37.846Z,77.15
2018-07-06T06:44:30.778Z,77.38
2018-07-06T06:45:30.782Z,76.86
2018-07-06T06:47:23.698Z,77.53
2018-07-06T06:48:23.719Z,76.96
2018-07-06T06:50:16.654Z,77.73
2018-07-06T06:51:16.656Z,77.15
2018-07-06T06:53:09.682Z,77.00
2018-07-06T06:54:09.595Z,77.48
2018-07-06T06:56:02.505Z,76.17
2018-07-06T06:57:02.530Z,75.69
2018-07-06T06:58:55.502Z,75.79
2018-07-06T06:59:55.469Z,75.56
2018-07-06T07:01:48.380Z,76.17
2018-07-06T07:02:48.406Z,76.17
2018-07-06T07:04:41.338Z,75.69
2018-07-06T07:05:41.340Z,75.79
2018-07-06T07:07:34.904Z,75.56
2018-07-06T07:08:34.773Z,76.17
2018-07-06T07:10:27.708Z,75.40
2018-07-06T07:11:27.711Z,75.49
2018-07-06T07:13:20.623Z,75.79
2018-07-06T07:14:20.647Z,75.02
2018-07-06T07:16:13.580Z,74.82
2018-07-06T07:17:13.583Z,74.67
2018-07-06T07:19:06.521Z,74.29
2018-07-06T07:20:06.521Z,73.80
2018-07-06T07:21:59.437Z,73.61
2018-07-06T07:22:59.466Z,74.13
2018-07-06T07:24:52.400Z,72.49
2018-07-06T07:25:52.409Z,72.33
2018-07-06T07:27:45.319Z,70.79
2018-07-06T07:28:45.349Z,71.08
2018-07-06T07:30:38.278Z,70.41
2018-07-06T07:31:38.285Z,70.56
2018-07-06T07:33:31.203Z,70.98
2018-07-06T07:34:31.231Z,70.56
2018-07-06T07:36:24.165Z,71.08
2018-07-06T07:37:24.164Z,71.28
2018-07-06T07:39:17.111Z,71.08
2018-07-06T07:40:17.112Z,70.98
2018-07-06T07:42:10.031Z,71.18
2018-07-06T07:43:10.060Z,70.60
2018-07-06T07:45:02.993Z,70.60
2018-07-06T07:46:02.996Z,70.21
2018-07-06T07:47:55.967Z,70.41
2018-07-06T07:48:55.967Z,70.02
2018-07-06T07:50:48.960Z,68.87
2018-07-06T07:51:48.922Z,69.25
2018-07-06T07:53:41.841Z,70.21
2018-07-06T07:54:41.869Z,70.21
2018-07-06T07:56:34.807Z,70.12
2018-07-06T07:57:34.812Z,70.31
2018-07-06T07:59:27.727Z,69.83
2018-07-06T08:00:27.779Z,69.54
2018-07-06T08:02:20.696Z,70.12
2018-07-06T08:03:20.693Z,70.02
2018-07-06T08:05:13.627Z,70.02
2018-07-06T08:06:13.639Z,70.02
2018-07-06T08:08:06.551Z,69.83
2018-07-06T08:09:06.580Z,69.25
2018-07-06T08:10:59.512Z,69.73
2018-07-06T08:11:59.517Z,69.15
2018-07-06T08:13:52.437Z,68.80
2018-07-06T08:14:52.459Z,68.99
2018-07-06T08:16:45.396Z,67.46
2018-07-06T08:17:45.398Z,67.78
2018-07-06T08:19:38.351Z,66.91
2018-07-06T08:20:38.342Z,66.82
2018-07-06T08:22:31.262Z,66.72
2018-07-06T08:23:31.290Z,66.72
2018-07-06T08:25:24.232Z,66.43
2018-07-06T08:26:24.241Z,66.62
2018-07-06T08:28:17.179Z,66.82
2018-07-06T08:29:17.179Z,67.20
2018-07-06T08:31:10.120Z,65.85
2018-07-06T08:32:10.124Z,65.27
2018-07-06T08:34:03.045Z,65.30
2018-07-06T08:35:03.073Z,65.30
2018-07-06T08:36:56.007Z,65.11
2018-07-06T08:37:56.019Z,64.92
2018-07-06T08:39:48.948Z,64.53
2018-07-06T08:40:48.963Z,64.66
2018-07-06T08:42:41.895Z,63.70
2018-07-06T08:43:41.906Z,63.89
2018-07-06T08:45:34.841Z,63.67
2018-07-06T08:46:34.851Z,63.57
2018-07-06T08:48:27.778Z,63.95
2018-07-06T08:49:27.796Z,64.59
2018-07-06T08:51:20.733Z,64.50
2018-07-06T08:52:20.744Z,64.53
2018-07-06T08:54:13.660Z,63.95
2018-07-06T08:55:13.686Z,64.24
2018-07-06T08:57:06.625Z,64.43
2018-07-06T08:58:06.660Z,64.43
2018-07-06T08:59:59.547Z,63.40
2018-07-06T09:00:59.574Z,62.05
2018-07-06T09:02:52.514Z,62.12
2018-07-06T09:03:52.522Z,62.02
2018-07-06T09:05:45.477Z,63.18
2018-07-06T09:06:45.473Z,63.37
2018-07-06T09:08:38.392Z,63.18
2018-07-06T09:09:38.428Z,63.40
2018-07-06T09:11:31.360Z,62.15
2018-07-06T09:12:31.369Z,62.34
2018-07-06T09:14:24.284Z,60.83
2018-07-06T09:15:24.320Z,59.31
2018-07-06T09:17:17.306Z,57.67
2018-07-06T09:18:17.292Z,57.41
2018-07-06T09:20:10.371Z,57.31
2018-07-06T09:21:10.240Z,57.03
2018-07-06T09:23:03.215Z,56.83
2018-07-06T09:24:03.195Z,57.99
2018-07-06T09:25:56.411Z,56.63
2018-07-06T09:26:56.176Z,56.80
2018-07-06T09:28:49.072Z,55.45
2018-07-06T09:29:49.104Z,54.99
2018-07-06T09:31:42.195Z,54.32
2018-07-06T09:32:42.198Z,54.32
2018-07-06T09:34:35.126Z,53.55
2018-07-06T09:35:35.149Z,53.35
2018-07-06T09:37:28.091Z,53.67
2018-07-06T09:38:28.101Z,53.86
2018-07-06T09:40:21.021Z,53.47
2018-07-06T09:41:21.059Z,53.31
2018-07-06T09:43:13.994Z,52.14
2018-07-06T09:44:13.995Z,52.53
2018-07-06T09:46:06.914Z,52.44
2018-07-06T09:47:06.945Z,53.69
2018-07-06T09:48:59.882Z,53.21
2018-07-06T09:49:59.888Z,53.21
2018-07-06T09:51:52.830Z,52.95
2018-07-06T09:52:52.839Z,52.36
2018-07-06T09:54:45.775Z,50.55
2018-07-06T09:55:45.792Z,49.77
2018-07-06T09:57:38.731Z,49.77
2018-07-06T09:58:38.741Z,49.29
2018-07-06T10:00:31.690Z,49.39
2018-07-06T10:01:31.707Z,49.97
2018-07-06T10:03:24.652Z,48.90
2018-07-06T10:04:24.744Z,48.93
2018-07-06T10:06:17.584Z,49.61
2018-07-06T10:07:17.609Z,49.51
2018-07-06T10:09:10.558Z,47.96
2018-07-06T10:10:10.575Z,47.19
2018-07-06T10:12:03.526Z,47.94
2018-07-06T10:13:03.521Z,49.39
2018-07-06T10:14:56.442Z,50.16
2018-07-06T10:15:56.474Z,50.07
2018-07-06T10:17:49.425Z,47.74
2018-07-06T10:18:49.427Z,48.52
2018-07-06T10:20:42.352Z,48.81
2018-07-06T10:21:42.379Z,47.33
2018-07-06T10:23:35.343Z,48.01
2018-07-06T10:24:35.349Z,48.59
2018-07-06T10:26:28.264Z,49.19
2018-07-06T10:27:28.358Z,48.71
2018-07-06T10:29:21.236Z,49.10
2018-07-06T10:30:21.241Z,49.39
2018-07-06T10:32:14.191Z,49.19
2018-07-06T10:33:14.306Z,48.71
2018-07-06T10:35:07.136Z,47.86
2018-07-06T10:36:07.153Z,46.80
2018-07-06T10:38:00.109Z,46.22
2018-07-06T10:39:00.107Z,46.99
2018-07-06T10:40:53.035Z,47.69
2018-07-06T10:41:53.057Z,46.72
2018-07-06T10:43:46.007Z,46.70
2018-07-06T10:44:46.008Z,46.99
2018-07-06T10:46:38.962Z,46.80
2018-07-06T10:47:38.962Z,47.57
2018-07-06T10:49:31.909Z,47.09
2018-07-06T10:50:31.914Z,46.99
2018-07-06T10:52:24.857Z,46.12
2018-07-06T10:53:24.864Z,47.09
2018-07-06T10:55:17.814Z,46.19
2018-07-06T10:56:17.839Z,46.09
2018-07-06T10:58:10.792Z,46.87
2018-07-06T10:59:10.788Z,46.87
2018-07-06T11:01:03.712Z,46.19
2018-07-06T11:02:03.737Z,45.42
2018-07-06T11:03:58.976Z,45.61
2018-07-06T11:04:58.119Z,45.13
2018-07-06T11:06:51.031Z,43.38
2018-07-06T11:07:51.060Z,43.09
2018-07-06T11:09:44.003Z,43.31
2018-07-06T11:10:44.010Z,42.80
2018-07-06T11:12:36.963Z,42.51
2018-07-06T11:13:36.968Z,43.00
2018-07-06T11:15:29.924Z,43.29
2018-07-06T11:16:29.920Z,44.26
2018-07-06T11:18:22.870Z,44.06
2018-07-06T11:19:22.875Z,43.29
2018-07-06T11:21:15.791Z,43.38
2018-07-06T11:22:15.820Z,43.60
2018-07-06T11:24:08.754Z,44.37
2018-07-06T11:25:08.817Z,44.57
2018-07-06T11:27:01.692Z,45.13
2018-07-06T11:28:01.722Z,44.54
2018-07-06T11:29:54.664Z,46.00
2018-07-06T11:30:54.674Z,45.42
2018-07-06T11:32:47.590Z,45.54
2018-07-06T11:33:47.622Z,44.76
2018-07-06T11:35:40.566Z,44.47
2018-07-06T11:36:40.573Z,44.76
2018-07-06T11:38:34.028Z,44.96
2018-07-06T11:39:34.013Z,45.44
2018-07-06T11:41:26.936Z,44.86
2018-07-06T11:42:26.966Z,44.86
2018-07-06T11:44:19.911Z,43.72
2018-07-06T11:45:19.994Z,42.94
2018-07-06T11:47:12.829Z,42.94
2018-07-06T11:48:12.856Z,41.88
2018-07-06T11:50:05.808Z,41.78
2018-07-06T11:51:05.816Z,41.97
2018-07-06T11:52:58.734Z,42.38
2018-07-06T11:53:58.777Z,40.92
2018-07-06T11:55:51.714Z,40.73
2018-07-06T11:56:51.716Z,40.64
2018-07-06T11:58:44.665Z,41.51
2018-07-06T11:59:44.670Z,41.31
2018-07-06T12:01:37.594Z,40.42
2018-07-06T12:02:37.627Z,41.10
2018-07-06T12:04:30.623Z,41.39
2018-07-06T12:05:30.731Z,41.78
2018-07-06T12:07:23.557Z,39.86
2018-07-06T12:08:23.519Z,39.47
2018-07-06T12:10:16.680Z,39.11
2018-07-06T12:11:16.469Z,38.81
2018-07-06T12:13:09.927Z,38.32
2018-07-06T12:14:09.945Z,39.49
2018-07-06T12:16:02.910Z,39.08
2018-07-06T12:17:02.916Z,39.69
2018-07-06T12:18:55.870Z,39.11
2018-07-06T12:19:56.040Z,39.37
2018-07-06T12:21:49.449Z,40.08
2018-07-06T12:22:49.034Z,39.88
2018-07-06T12:24:41.977Z,38.71
2018-07-06T12:25:41.995Z,38.62
2018-07-06T12:27:34.916Z,39.11
2018-07-06T12:28:34.981Z,37.34
2018-07-06T12:30:27.944Z,38.40
2018-07-06T12:31:27.893Z,38.60
2018-07-06T12:33:20.814Z,38.99
2018-07-06T12:34:20.953Z,38.02
2018-07-06T12:36:13.784Z,39.18
2018-07-06T12:37:13.796Z,39.18
2018-07-06T12:39:06.943Z,38.99
2018-07-06T12:40:06.748Z,39.57
2018-07-06T12:41:59.847Z,38.31
2018-07-06T12:42:59.701Z,38.70
2018-07-06T12:44:52.730Z,38.89
2018-07-06T12:45:52.654Z,39.47
2018-07-06T12:47:45.577Z,39.47
2018-07-06T12:48:45.672Z,39.67
2018-07-06T12:50:38.562Z,38.99
2018-07-06T12:51:38.573Z,40.15
2018-07-06T12:53:31.493Z,39.06
2018-07-06T12:54:31.520Z,39.47
2018-07-06T12:56:24.528Z,38.50
2018-07-06T12:57:24.507Z,37.73
2018-07-06T12:59:17.430Z,37.63
2018-07-06T13:00:17.458Z,37.94
2018-07-06T13:02:10.400Z,37.94
2018-07-06T13:03:10.408Z,38.52
2018-07-06T13:05:03.331Z,37.35
2018-07-06T13:06:03.358Z,37.55
2018-07-06T13:07:56.451Z,38.04
2018-07-06T13:08:56.450Z,38.04
2018-07-06T13:10:49.457Z,36.19
2018-07-06T13:11:49.417Z,35.51
2018-07-06T13:13:42.352Z,35.61
2018-07-06T13:14:42.380Z,35.80
2018-07-06T13:16:35.315Z,35.98
2018-07-06T13:17:35.317Z,35.59
2018-07-06T13:19:28.243Z,36.18
2018-07-06T13:20:28.279Z,36.77
2018-07-06T13:22:21.327Z,35.98
2018-07-06T13:23:21.232Z,36.08
2018-07-06T13:25:14.144Z,35.88
2018-07-06T13:26:14.194Z,36.18
2018-07-06T13:28:07.122Z,36.48
2018-07-06T13:29:07.137Z,35.90
2018-07-06T13:31:00.087Z,35.90
2018-07-06T13:32:00.093Z,36.19
2018-07-06T13:33:53.071Z,34.35
2018-07-06T13:34:53.034Z,34.36
2018-07-06T13:36:45.980Z,33.69
2018-07-06T13:37:45.985Z,33.59
2018-07-06T13:39:38.917Z,34.25
2018-07-06T13:40:38.942Z,34.54
2018-07-06T13:42:31.887Z,34.35
2018-07-06T13:43:31.890Z,34.25
2018-07-06T13:45:25.047Z,34.74
2018-07-06T13:46:25.049Z,34.25
2018-07-06T13:48:18.040Z,34.74
2018-07-06T13:49:17.974Z,34.44
2018-07-06T13:51:10.883Z,34.64
2018-07-06T13:52:10.909Z,34.56
2018-07-06T13:54:04.013Z,33.78
2018-07-06T13:55:03.968Z,33.78
2018-07-06T13:56:56.911Z,33.29
2018-07-06T13:57:56.919Z,32.62
2018-07-06T13:59:49.883Z,29.80
2018-07-06T14:00:49.899Z,30.00
2018-07-06T14:02:42.890Z,29.71
2018-07-06T14:03:42.851Z,29.80
2018-07-06T14:05:35.774Z,28.93
2018-07-06T14:06:35.801Z,29.12
2018-07-06T14:08:28.740Z,29.32
2018-07-06T14:09:28.749Z,28.93
2018-07-06T14:11:21.673Z,28.64
2018-07-06T14:12:21.699Z,28.54
2018-07-06T14:14:14.644Z,28.74
2018-07-06T14:15:14.652Z,28.74
2018-07-06T14:17:07.591Z,28.85
2018-07-06T14:18:07.599Z,28.93
2018-07-06T14:20:00.538Z,28.74
2018-07-06T14:21:00.548Z,28.55
2018-07-06T14:22:53.491Z,29.14
2018-07-06T14:23:53.499Z,28.94
2018-07-06T14:25:46.429Z,29.12
2018-07-06T14:26:46.454Z,29.33
2018-07-06T14:28:39.416Z,28.65
2018-07-06T14:29:39.479Z,28.55
2018-07-06T14:31:32.322Z,28.65
2018-07-06T14:32:32.351Z,28.55
2018-07-06T14:34:25.312Z,28.26
2018-07-06T14:35:25.310Z,28.75
2018-07-06T14:37:18.834Z,28.85
2018-07-06T14:38:18.757Z,29.04
2018-07-06T14:40:11.682Z,28.94
2018-07-06T14:41:11.860Z,28.28
2018-07-06T14:43:04.671Z,28.47
2018-07-06T14:44:04.699Z,28.57
2018-07-06T14:45:57.739Z,28.07
2018-07-06T14:46:57.647Z,28.57
2018-07-06T14:48:50.703Z,29.14
2018-07-06T14:49:50.590Z,29.05
2018-07-06T14:51:43.601Z,28.08
2018-07-06T14:52:43.625Z,27.78
2018-07-06T14:54:36.612Z,27.78
2018-07-06T14:55:36.564Z,28.05
2018-07-06T14:57:29.472Z,28.64
2018-07-06T14:58:29.505Z,28.83
2018-07-06T15:00:22.929Z,29.22
2018-07-06T15:01:23.031Z,28.54
2018-07-06T15:03:16.901Z,28.64
2018-07-06T15:04:16.908Z,29.24
2018-07-06T15:06:09.823Z,29.32
2018-07-06T15:07:09.850Z,29.41
2018-07-06T15:09:02.849Z,28.93
2018-07-06T15:10:02.804Z,28.83
2018-07-06T15:11:55.735Z,29.71
2018-07-06T15:12:55.836Z,30.48
2018-07-06T15:14:48.720Z,28.85
2018-07-06T15:15:48.721Z,28.85
2018-07-06T15:17:41.678Z,28.65
2018-07-06T15:18:41.676Z,28.44
2018-07-06T15:20:34.615Z,29.32
2018-07-06T15:21:34.933Z,29.32
2018-07-06T15:23:27.681Z,29.02
2018-07-06T15:24:27.792Z,29.82
2018-07-06T15:26:21.614Z,29.14
2018-07-06T15:27:20.679Z,29.71
2018-07-06T15:29:13.587Z,29.80
2018-07-06T15:30:13.592Z,29.79
2018-07-06T15:32:06.653Z,30.27
2018-07-06T15:33:06.629Z,30.38
2018-07-06T15:34:59.563Z,30.38
2018-07-06T15:35:59.572Z,30.19
2018-07-06T15:37:52.491Z,30.38
2018-07-06T15:38:52.522Z,29.80
2018-07-06T15:40:45.461Z,29.62
2018-07-06T15:41:45.475Z,30.29
2018-07-06T15:43:38.446Z,30.21
2018-07-06T15:44:38.426Z,29.24
2018-07-06T15:46:31.366Z,30.00
2018-07-06T15:47:31.377Z,29.51
2018-07-06T15:49:24.374Z,29.69
2018-07-06T15:50:24.352Z,30.09
2018-07-06T15:52:17.252Z,30.19
2018-07-06T15:53:17.277Z,30.29
2018-07-06T15:55:10.221Z,30.09
2018-07-06T15:56:10.227Z,30.48
2018-07-06T15:58:03.152Z,30.38
2018-07-06T15:59:03.181Z,30.58
2018-07-06T16:00:56.164Z,29.80
2018-07-06T16:01:56.159Z,29.71
2018-07-06T16:03:49.074Z,29.61
2018-07-06T16:04:49.105Z,29.80
2018-07-06T16:06:42.063Z,29.61
2018-07-06T16:07:42.052Z,29.61
2018-07-06T16:09:34.993Z,29.22
2018-07-06T16:10:35.004Z,29.41
2018-07-06T16:12:27.926Z,28.64
2018-07-06T16:13:27.952Z,29.02
2018-07-06T16:15:20.896Z,29.61
2018-07-06T16:16:20.904Z,29.90
2018-07-06T16:18:13.830Z,29.71
2018-07-06T16:19:13.857Z,30.09
2018-07-06T16:21:06.807Z,30.00
2018-07-06T16:22:06.804Z,29.24
2018-07-06T16:23:59.727Z,29.04
2018-07-06T16:24:59.758Z,28.85
2018-07-06T16:26:52.705Z,28.45
2018-07-06T16:27:52.740Z,28.85
2018-07-06T16:29:46.659Z,28.65
2018-07-06T16:30:46.661Z,28.66
2018-07-06T16:32:39.572Z,28.38
2018-07-06T16:33:39.624Z,28.18
2018-07-06T16:35:32.544Z,28.26
2018-07-06T16:36:32.553Z,28.17
2018-07-06T16:38:25.473Z,27.78
2018-07-06T16:39:25.507Z,27.87
2018-07-06T16:41:18.453Z,27.48
2018-07-06T16:42:18.452Z,27.76
2018-07-06T16:44:11.375Z,27.86
2018-07-06T16:45:11.403Z,27.86
2018-07-06T16:47:04.346Z,27.37
2018-07-06T16:48:04.356Z,28.04
2018-07-06T16:49:57.296Z,28.25
2018-07-06T16:50:57.308Z,27.96
2018-07-06T16:52:50.228Z,28.05
2018-07-06T16:53:50.253Z,28.05
2018-07-06T16:55:43.195Z,28.33
2018-07-06T16:56:43.204Z,28.04
2018-07-06T16:58:36.134Z,28.80
2018-07-06T16:59:36.162Z,28.90
2018-07-06T17:01:29.104Z,28.51
2018-07-06T17:02:29.102Z,28.51
2018-07-06T17:04:22.023Z,28.80
2018-07-06T17:05:22.052Z,28.61
2018-07-06T17:07:14.991Z,28.32
2018-07-06T17:08:14.999Z,28.53
2018-07-06T17:10:07.923Z,28.13
2018-07-06T17:11:07.947Z,28.22
2018-07-06T17:13:00.888Z,28.32
2018-07-06T17:14:00.895Z,28.32
2018-07-06T17:15:53.837Z,28.32
2018-07-06T17:16:53.844Z,28.32
2018-07-06T17:18:46.777Z,27.72
2018-07-06T17:19:46.808Z,28.13
2018-07-06T17:21:39.740Z,28.80
2018-07-06T17:22:39.743Z,28.13
2018-07-06T17:24:32.694Z,28.40
2018-07-06T17:25:32.707Z,28.40
2018-07-06T17:27:25.646Z,28.59
2018-07-06T17:28:25.657Z,28.59
2018-07-06T17:30:18.574Z,28.11
2018-07-06T17:31:18.606Z,28.50
2018-07-06T17:33:11.541Z,29.08
2018-07-06T17:34:11.554Z,28.97
2018-07-06T17:36:04.496Z,28.50
2018-07-06T17:37:04.501Z,28.49
2018-07-06T17:38:57.454Z,28.89
2018-07-06T17:39:57.457Z,28.29
2018-07-06T17:41:50.407Z,28.79
2018-07-06T17:42:50.408Z,28.77
2018-07-06T17:44:43.332Z,28.69
2018-07-06T17:45:43.359Z,29.27
2018-07-06T17:47:37.296Z,28.89
2018-07-06T17:48:37.302Z,29.17
2018-07-06T17:50:30.399Z,28.80
2018-07-06T17:51:30.252Z,28.90
2018-07-06T17:53:23.192Z,27.86
2018-07-06T17:54:23.202Z,27.57
2018-07-06T17:56:16.140Z,27.29
2018-07-06T17:57:16.160Z,27.10
2018-07-06T17:59:09.094Z,27.08
2018-07-06T18:00:09.115Z,27.08
2018-07-06T18:02:02.044Z,27.57
2018-07-06T18:03:02.051Z,27.17
2018-07-06T18:04:54.986Z,28.23
2018-07-06T18:05:55.018Z,28.72
2018-07-06T18:07:47.951Z,28.14
2018-07-06T18:08:47.957Z,28.04
2018-07-06T18:10:40.890Z,28.14
2018-07-06T18:11:40.907Z,28.34
2018-07-06T18:13:33.847Z,27.87
2018-07-06T18:14:33.860Z,27.18
2018-07-06T18:16:26.785Z,26.61
2018-07-06T18:17:26.816Z,26.42
2018-07-06T18:19:19.761Z,26.32
2018-07-06T18:20:19.767Z,26.42
2018-07-06T18:22:12.689Z,26.42
2018-07-06T18:23:12.851Z,26.61
2018-07-06T18:25:05.671Z,26.42
2018-07-06T18:26:05.675Z,26.53
2018-07-06T18:27:58.622Z,26.14
2018-07-06T18:28:58.623Z,26.04
2018-07-06T18:30:51.551Z,25.18
2018-07-06T18:31:51.579Z,25.27
2018-07-06T18:33:44.521Z,25.35